createdAt,value
2018-01-29T00:01:21.844Z,31.70
2018-01-29T00:03:49.582Z,30.60
2018-01-29T00:06:16.306Z,24.87
2018-01-29T00:08:45.056Z,25.90
2018-01-29T00:11:12.776Z,27.77
2018-01-29T00:13:40.502Z,25.27
2018-01-29T00:16:09.137Z,25.50
2018-01-29T00:18:35.826Z,20.57
2018-01-29T00:21:02.564Z,26.77
2018-01-29T00:23:29.274Z,27.47
2018-01-29T00:25:56.062Z,24.33
2018-01-29T00:28:23.828Z,21.37
2018-01-29T00:30:50.535Z,22.43
2018-01-29T00:33:17.278Z,24.10
2018-01-29T00:35:51.500Z,23.37
2018-01-29T00:38:18.204Z,24.13
2018-01-29T00:40:45.894Z,23.17
2018-01-29T00:43:13.642Z,22.97
2018-01-29T00:45:41.333Z,19.77
2018-01-29T00:48:10.020Z,20.77
2018-01-29T00:50:37.068Z,24.63
2018-01-29T00:53:07.927Z,25.37
2018-01-29T00:55:34.680Z,23.10
2018-01-29T00:58:10.140Z,20.23
2018-01-29T01:00:37.874Z,26.63
2018-01-29T01:03:06.568Z,27.50
2018-01-29T01:05:33.308Z,26.97
2018-01-29T01:08:02.004Z,28.03
2018-01-29T01:10:29.662Z,22.03
2018-01-29T01:12:57.368Z,22.07
2018-01-29T01:15:25.024Z,24.37
2018-01-29T01:17:51.742Z,21.03
2018-01-29T01:20:22.327Z,22.10
2018-01-29T01:22:50.067Z,23.30
2018-01-29T01:25:16.788Z,22.40
2018-01-29T01:27:44.520Z,21.97
2018-01-29T01:30:12.236Z,26.47
2018-01-29T01:32:39.902Z,24.47
2018-01-29T01:35:10.875Z,20.53
2018-01-29T01:37:38.606Z,21.97
2018-01-29T01:40:05.290Z,23.93
2018-01-29T01:42:33.992Z,16.70
2018-01-29T01:45:00.679Z,17.13
2018-01-29T01:47:27.387Z,18.30
2018-01-29T01:50:03.417Z,17.67
2018-01-29T01:55:16.372Z,18.40
2018-01-29T01:57:45.026Z,20.83
2018-01-29T02:00:11.712Z,20.90
2018-01-29T02:02:38.448Z,19.50
2018-01-29T02:05:06.184Z,20.50
2018-01-29T02:07:32.938Z,20.00
2018-01-29T02:09:59.811Z,19.43
2018-01-29T02:12:27.531Z,16.83
2018-01-29T02:14:54.212Z,17.53
2018-01-29T02:17:21.976Z,18.73
2018-01-29T02:19:48.698Z,20.20
2018-01-29T02:22:15.456Z,18.80
2018-01-29T02:24:42.214Z,19.23
2018-01-29T02:27:10.204Z,15.53
2018-01-29T02:29:36.900Z,16.67
2018-01-29T02:32:03.639Z,16.43
2018-01-29T02:34:32.326Z,16.97
2018-01-29T02:37:00.005Z,17.97
2018-01-29T02:39:27.762Z,17.70
2018-01-29T02:41:55.421Z,18.13
2018-01-29T02:44:23.122Z,17.90
2018-01-29T02:46:50.805Z,14.33
2018-01-29T02:49:18.530Z,15.63
2018-01-29T02:51:46.207Z,14.77
2018-01-29T02:54:12.952Z,15.00
2018-01-29T02:56:39.691Z,16.07
2018-01-29T02:59:07.350Z,14.03
2018-01-29T03:01:34.142Z,15.97
2018-01-29T03:04:01.860Z,14.67
2018-01-29T03:06:28.620Z,15.83
2018-01-29T03:08:56.306Z,15.37
2018-01-29T03:11:27.944Z,16.30
2018-01-29T03:13:55.610Z,16.47
2018-01-29T03:16:22.384Z,20.27
2018-01-29T03:18:50.123Z,21.47
2018-01-29T03:21:16.852Z,21.63
2018-01-29T03:23:45.590Z,20.67
2018-01-29T03:26:13.322Z,17.37
2018-01-29T03:28:40.962Z,19.40
2018-01-29T03:31:09.731Z,18.07
2018-01-29T03:33:37.423Z,18.30
2018-01-29T03:36:09.850Z,15.80
2018-01-29T03:38:37.580Z,17.73
2018-01-29T03:41:05.248Z,16.07
2018-01-29T03:43:32.010Z,16.50
2018-01-29T03:45:59.762Z,17.10
2018-01-29T03:48:27.424Z,13.83
2018-01-29T03:50:58.803Z,14.10
2018-01-29T03:53:25.522Z,18.77
2018-01-29T03:55:52.220Z,18.57
2018-01-29T03:58:20.914Z,18.43
2018-01-29T04:00:48.634Z,20.97
2018-01-29T04:03:17.310Z,22.93
2018-01-29T04:05:44.097Z,21.87
2018-01-29T04:08:11.828Z,17.10
2018-01-29T04:10:38.522Z,16.00
2018-01-29T04:13:07.197Z,19.00
2018-01-29T04:15:34.930Z,17.73
2018-01-29T04:18:01.624Z,18.67
2018-01-29T04:20:28.351Z,18.33
2018-01-29T04:22:56.091Z,17.43
2018-01-29T04:25:22.903Z,16.17
2018-01-29T04:27:50.943Z,15.83
2018-01-29T04:30:17.681Z,13.83
2018-01-29T04:32:45.311Z,13.07
2018-01-29T04:35:12.048Z,17.03
2018-01-29T04:37:39.728Z,11.93
2018-01-29T04:40:06.423Z,13.53
2018-01-29T04:42:38.079Z,14.13
2018-01-29T04:45:06.718Z,15.97
2018-01-29T04:47:46.972Z,12.33
2018-01-29T04:53:00.155Z,16.67
2018-01-29T04:55:27.849Z,14.70
2018-01-29T04:57:55.556Z,14.90
2018-01-29T05:00:22.320Z,13.77
2018-01-29T05:02:49.979Z,13.13
2018-01-29T05:05:16.663Z,11.27
2018-01-29T05:07:44.423Z,9.40
2018-01-29T05:10:12.147Z,11.77
2018-01-29T05:12:39.875Z,16.80
2018-01-29T05:15:07.622Z,15.20
2018-01-29T05:17:38.425Z,14.97
2018-01-29T05:20:05.117Z,13.13
2018-01-29T05:22:33.793Z,11.77
2018-01-29T05:25:02.465Z,13.20
2018-01-29T05:27:30.111Z,11.43
2018-01-29T05:29:56.843Z,12.70
2018-01-29T05:32:25.532Z,13.13
2018-01-29T05:35:06.551Z,13.17
2018-01-29T05:37:33.839Z,12.20
2018-01-29T05:40:01.555Z,10.77
2018-01-29T05:42:28.343Z,11.97
2018-01-29T05:44:56.063Z,12.40
2018-01-29T05:47:23.715Z,12.80
2018-01-29T05:49:51.462Z,13.47
2018-01-29T05:52:19.163Z,10.10
2018-01-29T05:54:47.913Z,12.90
2018-01-29T05:57:16.697Z,13.70
2018-01-29T05:59:44.416Z,13.80
2018-01-29T06:02:12.129Z,13.17
2018-01-29T06:04:39.906Z,13.30
2018-01-29T06:07:11.508Z,16.73
2018-01-29T06:09:38.209Z,12.73
2018-01-29T06:12:04.954Z,12.23
2018-01-29T06:14:32.653Z,10.63
2018-01-29T06:17:01.418Z,11.13
2018-01-29T06:19:30.197Z,9.87
2018-01-29T06:21:56.896Z,8.37
2018-01-29T06:24:23.631Z,13.43
2018-01-29T06:26:50.343Z,13.60
2018-01-29T06:29:18.042Z,12.03
2018-01-29T06:31:44.806Z,10.13
2018-01-29T06:34:12.487Z,12.37
2018-01-29T06:36:40.139Z,12.63
2018-01-29T06:39:07.783Z,14.13
2018-01-29T06:41:34.509Z,11.77
2018-01-29T06:44:02.197Z,10.00
2018-01-29T06:46:30.933Z,8.53
2018-01-29T06:48:58.597Z,8.63
2018-01-29T06:51:26.309Z,10.13
2018-01-29T06:53:53.029Z,11.87
2018-01-29T06:56:20.783Z,11.07
2018-01-29T06:58:48.493Z,9.47
2018-01-29T07:01:15.279Z,12.57
2018-01-29T07:03:43.049Z,11.47
2018-01-29T07:06:11.720Z,11.63
2018-01-29T07:08:38.460Z,11.80
2018-01-29T07:11:05.272Z,11.87
2018-01-29T07:13:32.963Z,14.10
2018-01-29T07:15:59.667Z,12.50
2018-01-29T07:18:26.392Z,16.50
2018-01-29T07:20:55.019Z,10.73
2018-01-29T07:23:22.680Z,12.17
2018-01-29T07:25:50.399Z,16.17
2018-01-29T07:28:18.131Z,14.93
2018-01-29T07:30:44.817Z,15.60
2018-01-29T07:33:13.503Z,15.00
2018-01-29T07:35:41.213Z,17.40
2018-01-29T07:38:07.952Z,19.03
2018-01-29T07:40:35.681Z,19.27
2018-01-29T07:43:03.419Z,23.27
2018-01-29T07:45:30.119Z,15.77
2018-01-29T07:47:57.865Z,20.67
2018-01-29T07:50:29.483Z,17.47
2018-01-29T07:52:56.165Z,17.97
2018-01-29T07:55:23.983Z,15.60
2018-01-29T07:57:51.671Z,23.20
2018-01-29T08:00:18.419Z,23.63
2018-01-29T08:02:45.237Z,21.40
2018-01-29T08:05:12.922Z,23.63
2018-01-29T08:07:41.616Z,23.37
2018-01-29T08:10:08.393Z,29.20
2018-01-29T08:12:36.141Z,29.17
2018-01-29T08:15:04.808Z,27.00
2018-01-29T08:17:40.371Z,30.33
2018-01-29T08:20:10.595Z,25.37
2018-01-29T08:22:37.356Z,30.37
2018-01-29T08:25:04.130Z,23.10
2018-01-29T08:27:31.901Z,27.30
2018-01-29T08:29:59.817Z,31.27
2018-01-29T08:32:26.565Z,30.93
2018-01-29T08:34:54.223Z,24.73
2018-01-29T08:37:21.911Z,26.97
2018-01-29T08:39:48.673Z,26.37
2018-01-29T08:42:16.427Z,29.93
2018-01-29T08:44:44.147Z,28.77
2018-01-29T08:47:12.937Z,29.27
2018-01-29T08:49:40.641Z,29.83
2018-01-29T08:52:08.302Z,29.90
2018-01-29T09:04:24.106Z,27.90
2018-01-29T09:06:52.805Z,26.37
2018-01-29T09:09:19.608Z,35.17
2018-01-29T09:11:46.383Z,33.90
2018-01-29T09:14:14.135Z,35.47
2018-01-29T09:16:40.872Z,32.33
2018-01-29T09:19:08.610Z,31.60
2018-01-29T09:21:36.312Z,29.00
2018-01-29T09:24:03.044Z,31.27
2018-01-29T09:26:29.763Z,28.20
2018-01-29T09:28:57.458Z,30.13
2018-01-29T09:31:25.193Z,29.50
2018-01-29T09:33:53.968Z,25.23
2018-01-29T09:36:21.596Z,29.33
2018-01-29T09:38:48.328Z,25.10
2018-01-29T09:41:31.361Z,21.03
2018-01-29T09:44:00.033Z,20.77
2018-01-29T09:46:26.841Z,18.90
2018-01-29T09:48:53.548Z,16.97
2018-01-29T09:51:21.082Z,18.33
2018-01-29T09:53:53.212Z,19.00
2018-01-29T09:56:19.912Z,17.57
2018-01-29T09:58:47.563Z,16.63
2018-01-29T10:01:14.291Z,16.27
2018-01-29T10:03:41.998Z,16.87
2018-01-29T10:06:08.739Z,16.50
2018-01-29T10:08:36.511Z,17.03
2018-01-29T10:11:03.259Z,17.80
2018-01-29T10:13:30.021Z,16.33
2018-01-29T10:16:00.751Z,15.27
2018-01-29T10:18:27.468Z,15.73
2018-01-29T10:20:55.764Z,16.87
2018-01-29T10:23:22.524Z,16.67
2018-01-29T10:25:50.237Z,17.30
2018-01-29T10:28:17.956Z,16.60
2018-01-29T10:30:44.697Z,15.07
2018-01-29T10:33:11.421Z,15.57
2018-01-29T10:35:38.149Z,21.43
2018-01-29T10:38:05.865Z,32.70
2018-01-29T10:40:47.625Z,26.73
2018-01-29T10:43:15.331Z,26.67
2018-01-29T10:45:43.979Z,22.50
2018-01-29T10:48:12.659Z,23.87
2018-01-29T10:50:39.410Z,16.87
2018-01-29T10:53:06.099Z,17.30
2018-01-29T10:55:34.739Z,19.17
2018-01-29T10:58:01.477Z,17.63
2018-01-29T11:00:28.173Z,18.90
2018-01-29T11:02:55.903Z,19.53
2018-01-29T11:05:24.607Z,18.03
2018-01-29T11:07:52.235Z,15.90
2018-01-29T11:10:19.069Z,19.23
2018-01-29T11:12:45.801Z,16.73
2018-01-29T11:15:12.499Z,15.87
2018-01-29T11:17:41.186Z,15.77
2018-01-29T11:20:09.904Z,15.37
2018-01-29T11:22:38.548Z,15.50
2018-01-29T11:25:05.237Z,15.80
2018-01-29T11:27:33.929Z,13.67
2018-01-29T11:30:01.706Z,13.07
2018-01-29T11:32:29.426Z,14.93
2018-01-29T11:34:57.171Z,17.27
2018-01-29T11:37:25.507Z,14.80
2018-01-29T11:39:52.199Z,12.10
2018-01-29T11:42:20.933Z,14.50
2018-01-29T11:44:47.649Z,13.73
2018-01-29T11:47:14.335Z,13.97
2018-01-29T11:49:42.336Z,16.57
2018-01-29T11:52:10.041Z,14.17
2018-01-29T11:54:37.704Z,15.20
2018-01-29T11:57:05.401Z,14.07
2018-01-29T11:59:33.050Z,14.17
2018-01-29T12:02:00.592Z,15.77
2018-01-29T12:04:28.336Z,14.30
2018-01-29T12:06:56.807Z,11.57
2018-01-29T12:09:24.503Z,13.10
2018-01-29T12:11:53.223Z,13.57
2018-01-29T12:14:19.965Z,12.33
2018-01-29T12:16:47.607Z,9.77
2018-01-29T12:19:15.755Z,11.73
2018-01-29T12:21:41.036Z,12.70
2018-01-29T12:24:08.767Z,11.47
2018-01-29T12:26:36.493Z,19.20
2018-01-29T12:29:04.565Z,12.07
2018-01-29T12:31:32.294Z,14.23
2018-01-29T12:33:59.137Z,15.60
2018-01-29T12:36:31.000Z,14.50
2018-01-29T12:38:58.653Z,10.83
2018-01-29T12:41:25.445Z,14.80
2018-01-29T12:43:53.239Z,12.70
2018-01-29T12:46:20.858Z,14.17
2018-01-29T12:48:47.617Z,12.13
2018-01-29T12:51:15.395Z,12.30
2018-01-29T12:53:43.152Z,14.80
2018-01-29T12:56:10.860Z,16.17
2018-01-29T12:58:38.570Z,20.90
2018-01-29T13:01:06.222Z,14.60
2018-01-29T13:03:32.964Z,18.07
2018-01-29T13:06:00.621Z,24.13
2018-01-29T13:08:28.363Z,18.23
2018-01-29T13:10:56.040Z,21.43
2018-01-29T13:13:23.749Z,17.97
2018-01-29T13:15:50.467Z,14.90
2018-01-29T13:18:17.207Z,16.27
2018-01-29T13:20:44.877Z,14.63
2018-01-29T13:23:12.543Z,14.70
2018-01-29T13:25:40.244Z,13.47
2018-01-29T13:28:08.032Z,16.17
2018-01-29T13:30:34.759Z,15.10
2018-01-29T13:33:02.875Z,15.03
2018-01-29T13:35:34.047Z,20.33
2018-01-29T13:38:00.726Z,14.67
2018-01-29T13:40:27.824Z,18.07
2018-01-29T13:42:56.550Z,14.87
2018-01-29T13:45:23.296Z,14.40
2018-01-29T13:47:50.070Z,16.97
2018-01-29T13:50:17.798Z,16.30
2018-01-29T13:52:45.475Z,14.27
2018-01-29T13:55:12.242Z,15.37
2018-01-29T13:57:40.016Z,15.27
2018-01-29T14:00:08.677Z,16.37
2018-01-29T14:02:35.449Z,17.27
2018-01-29T14:05:06.346Z,17.40
2018-01-29T14:07:33.044Z,13.47
2018-01-29T14:10:01.716Z,18.47
2018-01-29T14:12:29.329Z,21.30
2018-01-29T14:14:56.022Z,17.63
2018-01-29T14:17:23.791Z,18.73
2018-01-29T14:19:50.500Z,17.77
2018-01-29T14:22:18.172Z,17.67
2018-01-29T14:24:44.971Z,16.70
2018-01-29T14:27:13.598Z,17.90
2018-01-29T14:29:42.302Z,19.03
2018-01-29T14:32:11.032Z,20.57
2018-01-29T14:34:38.758Z,20.27
2018-01-29T14:37:05.776Z,26.37
2018-01-29T14:39:33.497Z,23.60
2018-01-29T14:42:01.234Z,17.10
2018-01-29T14:44:28.010Z,18.07
2018-01-29T14:46:54.786Z,17.87
2018-01-29T14:49:21.457Z,22.87
2018-01-29T14:51:48.163Z,25.40
2018-01-29T14:54:15.948Z,22.43
2018-01-29T14:56:42.646Z,21.47
2018-01-29T14:59:09.382Z,20.93
2018-01-29T15:01:36.150Z,22.80
2018-01-29T15:04:04.861Z,18.40
2018-01-29T15:06:33.491Z,19.50
2018-01-29T15:09:01.222Z,22.90
2018-01-29T15:11:28.930Z,25.27
2018-01-29T15:13:56.660Z,26.27
2018-01-29T15:16:25.445Z,26.00
2018-01-29T15:18:53.711Z,25.87
2018-01-29T15:21:24.404Z,25.50
2018-01-29T15:23:52.096Z,25.87
2018-01-29T15:26:18.826Z,22.50
2018-01-29T15:28:53.367Z,23.77
2018-01-29T15:31:20.092Z,29.27
2018-01-29T15:39:18.124Z,27.60
2018-01-29T15:41:48.878Z,29.00
2018-01-29T15:44:16.598Z,24.13
2018-01-29T15:46:44.322Z,25.87
2018-01-29T15:49:12.038Z,24.40
2018-01-29T15:51:40.730Z,25.30
2018-01-29T15:54:08.434Z,24.87
2018-01-29T15:56:36.168Z,23.57
2018-01-29T15:59:03.850Z,20.30
2018-01-29T16:01:31.788Z,23.00
2018-01-29T16:03:59.480Z,21.77
2018-01-29T16:06:26.218Z,25.77
2018-01-29T16:08:52.962Z,23.07
2018-01-29T16:11:20.615Z,22.13
2018-01-29T16:13:49.326Z,25.90
2018-01-29T16:16:17.015Z,27.90
2018-01-29T16:18:43.728Z,22.60
2018-01-29T16:21:11.379Z,26.60
2018-01-29T16:23:39.100Z,30.40
2018-01-29T16:26:05.796Z,42.13
2018-01-29T16:28:32.500Z,41.43
2018-01-29T16:31:02.126Z,43.17
2018-01-29T16:36:18.794Z,36.63
2018-01-29T16:38:47.508Z,34.10
2018-01-29T16:41:14.216Z,40.67
2018-01-29T16:43:41.168Z,36.73
2018-01-29T16:46:07.871Z,31.03
2018-01-29T16:48:35.675Z,34.73
2018-01-29T16:51:02.402Z,32.97
2018-01-29T16:53:30.142Z,33.93
2018-01-29T16:55:57.878Z,32.30
2018-01-29T16:58:25.579Z,34.87
2018-01-29T17:00:52.284Z,38.37
2018-01-29T17:03:19.042Z,40.90
2018-01-29T17:05:47.742Z,48.70
2018-01-29T17:08:16.416Z,47.70
2018-01-29T17:10:43.136Z,51.07
2018-01-29T17:13:09.874Z,49.53
2018-01-29T17:15:37.576Z,49.93
2018-01-29T17:18:04.304Z,48.90
2018-01-29T17:20:31.082Z,55.07
2018-01-29T17:22:58.834Z,59.50
2018-01-29T17:25:25.564Z,61.17
2018-01-29T17:27:53.282Z,60.27
2018-01-29T17:30:21.910Z,60.80
2018-01-29T17:32:50.604Z,66.47
2018-01-29T17:35:17.325Z,58.87
2018-01-29T17:37:46.034Z,57.70
2018-01-29T17:40:14.733Z,60.33
2018-01-29T17:42:42.500Z,68.03
2018-01-29T17:45:10.169Z,67.17
2018-01-29T17:47:37.813Z,71.33
2018-01-29T17:50:05.540Z,76.70
2018-01-29T17:52:33.278Z,83.93
2018-01-29T17:55:00.034Z,85.40
2018-01-29T17:57:26.802Z,85.43
2018-01-29T17:59:54.510Z,82.93
2018-01-29T18:02:21.214Z,80.07
2018-01-29T18:04:48.945Z,76.20
2018-01-29T18:07:17.619Z,79.40
2018-01-29T18:09:44.306Z,68.27
2018-01-29T18:12:13.626Z,59.07
2018-01-29T18:14:41.325Z,52.70
2018-01-29T18:17:10.056Z,50.07
2018-01-29T18:19:36.788Z,49.80
2018-01-29T18:22:03.508Z,45.43
2018-01-29T18:24:30.208Z,41.83
2018-01-29T18:26:56.930Z,40.30
2018-01-29T18:29:24.689Z,43.03
2018-01-29T18:31:53.354Z,36.77
2018-01-29T18:34:21.060Z,40.03
2018-01-29T18:36:49.720Z,43.67
2018-01-29T18:39:17.408Z,47.60
2018-01-29T18:41:45.186Z,48.23
2018-01-29T18:44:12.934Z,45.63
2018-01-29T18:46:41.620Z,44.60
2018-01-29T18:49:12.480Z,39.67
2018-01-29T18:51:41.144Z,35.10
2018-01-29T18:54:09.034Z,38.77
2018-01-29T18:56:35.759Z,34.43
2018-01-29T18:59:02.482Z,38.33
2018-01-29T19:01:29.221Z,31.37
2018-01-29T19:03:56.937Z,36.63
2018-01-29T19:06:23.700Z,30.97
2018-01-29T19:08:50.450Z,29.17
2018-01-29T19:11:19.228Z,32.83
2018-01-29T19:13:46.946Z,31.90
2018-01-29T19:16:13.706Z,30.90
2018-01-29T19:18:40.478Z,35.07
2018-01-29T19:21:10.486Z,36.83
2018-01-29T19:23:37.202Z,30.77
2018-01-29T19:26:04.180Z,35.77
2018-01-29T19:28:32.852Z,40.63
2018-01-29T19:31:00.518Z,38.07
2018-01-29T19:33:28.250Z,45.83
2018-01-29T19:35:56.286Z,45.47
2018-01-29T19:38:27.949Z,44.50
2018-01-29T19:40:55.680Z,43.50
2018-01-29T19:43:26.640Z,46.40
2018-01-29T19:45:53.403Z,46.70
2018-01-29T19:48:20.099Z,41.83
2018-01-29T19:50:46.868Z,46.30
2018-01-29T19:53:14.552Z,43.40
2018-01-29T19:55:42.186Z,38.37
2018-01-29T19:58:08.873Z,42.20
2018-01-29T20:00:36.634Z,38.13
2018-01-29T20:03:03.362Z,38.83
2018-01-29T20:05:30.128Z,41.40
2018-01-29T20:07:56.888Z,31.47
2018-01-29T20:10:23.687Z,32.63
2018-01-29T20:12:55.318Z,34.50
2018-01-29T20:15:23.032Z,39.43
2018-01-29T20:17:49.742Z,40.17
2018-01-29T20:20:16.446Z,37.23
2018-01-29T20:22:44.210Z,36.63
2018-01-29T20:25:13.024Z,37.23
2018-01-29T20:27:41.748Z,34.30
2018-01-29T20:30:08.487Z,37.17
2018-01-29T20:32:40.564Z,42.37
2018-01-29T20:35:08.274Z,43.40
2018-01-29T20:37:36.896Z,39.03
2018-01-29T20:40:04.566Z,45.37
2018-01-29T20:42:31.292Z,42.73
2018-01-29T20:44:59.033Z,42.00
2018-01-29T20:47:27.686Z,37.10
2018-01-29T20:49:56.454Z,42.80
2018-01-29T20:52:25.171Z,45.17
2018-01-29T20:54:52.822Z,42.43
2018-01-29T20:57:20.571Z,44.00
2018-01-29T20:59:50.316Z,42.10
2018-01-29T21:02:18.998Z,49.70
2018-01-29T21:04:45.738Z,43.67
2018-01-29T21:07:12.428Z,43.40
2018-01-29T21:09:43.605Z,41.77
2018-01-29T21:12:11.357Z,44.13
2018-01-29T21:14:39.057Z,41.27
2018-01-29T21:17:06.738Z,48.03
2018-01-29T21:19:34.434Z,48.30
2018-01-29T21:22:05.603Z,55.43
2018-01-29T21:24:34.499Z,53.27
2018-01-29T21:27:03.271Z,52.97
2018-01-29T21:29:30.017Z,55.30
2018-01-29T21:31:56.784Z,55.17
2018-01-29T21:34:24.513Z,56.93
2018-01-29T21:36:52.185Z,55.27
2018-01-29T21:39:19.972Z,45.83
2018-01-29T21:41:51.554Z,49.33
2018-01-29T21:44:20.325Z,51.70
2018-01-29T21:46:47.023Z,47.17
2018-01-29T21:49:14.686Z,53.47
2018-01-29T21:51:43.452Z,49.93
2018-01-29T21:54:11.149Z,50.20
2018-01-29T21:56:37.841Z,43.80
2018-01-29T21:59:05.610Z,42.57
2018-01-29T22:01:33.319Z,43.17
2018-01-29T22:04:00.083Z,43.27
2018-01-29T22:06:26.849Z,44.57
2018-01-29T22:08:53.554Z,40.53
2018-01-29T22:11:20.244Z,41.10
2018-01-29T22:13:47.990Z,37.83
2018-01-29T22:16:15.647Z,40.50
2018-01-29T22:18:42.377Z,40.40
2018-01-29T22:21:09.101Z,39.40
2018-01-29T22:23:36.800Z,42.90
2018-01-29T22:26:15.260Z,40.53
2018-01-29T22:28:42.970Z,36.13
2018-01-29T22:31:10.637Z,42.67
2018-01-29T22:33:37.381Z,35.37
2018-01-29T22:36:04.083Z,36.53
2018-01-29T22:38:32.883Z,32.50
2018-01-29T22:41:00.631Z,26.70
2018-01-29T22:43:28.347Z,25.60
2018-01-29T22:45:55.042Z,25.27
2018-01-29T22:48:23.734Z,25.40
2018-01-29T22:50:57.365Z,25.90
2018-01-29T22:53:24.093Z,21.50
2018-01-29T22:55:50.818Z,24.00
2018-01-29T22:58:17.512Z,24.40
2018-01-29T23:00:47.397Z,18.23
2018-01-29T23:03:15.108Z,19.87
2018-01-29T23:05:42.724Z,18.40
2018-01-29T23:08:10.482Z,14.37
2018-01-29T23:10:38.204Z,15.00
2018-01-29T23:13:04.895Z,12.30
2018-01-29T23:15:32.647Z,12.63
2018-01-29T23:17:59.357Z,13.77
2018-01-29T23:20:26.567Z,12.13
2018-01-29T23:22:55.247Z,17.40
2018-01-29T23:25:22.973Z,15.23
2018-01-29T23:27:50.648Z,17.30
2018-01-29T23:30:18.374Z,15.80
2018-01-29T23:32:46.084Z,13.33
2018-01-29T23:35:12.817Z,9.97
2018-01-29T23:37:40.532Z,18.90
2018-01-29T23:40:09.186Z,18.80
2018-01-29T23:42:36.825Z,20.60
2018-01-29T23:45:04.544Z,17.43
2018-01-29T23:47:32.267Z,16.50
2018-01-29T23:50:00.967Z,16.63
2018-01-29T23:52:27.706Z,19.30
2018-01-29T23:54:54.425Z,15.13
2018-01-29T23:57:21.328Z,13.87
2018-01-29T23:59:49.243Z,16.27
